createdAt,value
2022-08-24T00:01:25.207Z,100794.46
2022-08-24T00:03:59.874Z,100786.65
2022-08-24T00:06:32.006Z,100786.82
2022-08-24T00:09:05.222Z,100785.86
2022-08-24T00:11:36.345Z,100787.73
2022-08-24T00:14:08.109Z,100789.27
2022-08-24T00:16:39.798Z,100790.28
2022-08-24T00:19:11.728Z,100792.73
2022-08-24T00:21:42.734Z,100789.23
2022-08-24T00:24:15.795Z,100788.85
2022-08-24T00:26:47.166Z,100789.71
2022-08-24T00:29:20.145Z,100783.09
2022-08-24T00:31:52.434Z,100781.70
2022-08-24T00:34:24.024Z,100783.34
2022-08-24T00:36:55.273Z,100775.20
2022-08-24T00:39:29.654Z,100775.96
2022-08-24T00:42:06.584Z,100771.02
2022-08-24T00:44:38.017Z,100779.82
2022-08-24T00:47:23.065Z,100781.52
2022-08-24T00:50:26.246Z,100782.30
2022-08-24T00:53:20.803Z,100780.17
2022-08-24T00:56:00.734Z,100780.31
2022-08-24T00:58:36.346Z,100781.36
2022-08-24T01:01:10.069Z,100784.63
2022-08-24T01:03:41.271Z,100788.60
2022-08-24T01:06:13.354Z,100790.55
2022-08-24T01:08:45.014Z,100791.11
2022-08-24T01:11:20.233Z,100791.05
2022-08-24T01:14:05.645Z,100795.23
2022-08-24T01:17:30.194Z,100793.77
2022-08-24T01:20:05.955Z,100792.18
2022-08-24T01:23:16.882Z,100788.30
2022-08-24T01:25:49.747Z,100786.30
2022-08-24T01:28:27.297Z,100791.92
2022-08-24T01:30:59.277Z,100791.89
2022-08-24T01:33:33.494Z,100788.20
2022-08-24T01:36:22.354Z,100790.23
2022-08-24T01:39:04.805Z,100792.89
2022-08-24T01:41:36.186Z,100787.31
2022-08-24T01:44:11.627Z,100791.45
2022-08-24T01:46:54.494Z,100791.84
2022-08-24T01:49:29.705Z,100788.04
2022-08-24T01:52:13.710Z,100789.98
2022-08-24T01:54:55.673Z,100792.45
2022-08-24T01:57:35.385Z,100796.16
2022-08-24T02:00:53.772Z,100789.72
2022-08-24T02:03:35.893Z,100787.26
2022-08-24T02:06:23.914Z,100790.60
2022-08-24T02:08:56.135Z,100786.55
2022-08-24T02:11:41.852Z,100787.09
2022-08-24T02:14:17.114Z,100788.14
2022-08-24T02:16:50.126Z,100794.48
2022-08-24T02:19:39.793Z,100788.64
2022-08-24T02:22:34.725Z,100796.11
2022-08-24T02:25:19.383Z,100792.59
2022-08-24T02:27:50.745Z,100792.64
2022-08-24T02:30:37.724Z,100793.66
2022-08-24T02:33:15.654Z,100791.20
2022-08-24T02:35:53.865Z,100793.99
2022-08-24T02:38:28.292Z,100795.13
2022-08-24T02:40:59.965Z,100797.19
2022-08-24T02:43:30.845Z,100799.69
2022-08-24T02:46:06.512Z,100802.05
2022-08-24T02:48:44.292Z,100807.10
2022-08-24T02:51:26.754Z,100805.34
2022-08-24T02:54:02.344Z,100803.55
2022-08-24T02:56:33.792Z,100803.90
2022-08-24T02:59:04.783Z,100809.12
2022-08-24T03:01:35.601Z,100808.07
2022-08-24T03:04:06.705Z,100810.90
2022-08-24T03:06:38.263Z,100811.02
2022-08-24T03:09:43.504Z,100815.02
2022-08-24T03:12:20.734Z,100820.99
2022-08-24T03:14:56.022Z,100823.91
2022-08-24T03:17:31.825Z,100828.25
2022-08-24T03:20:04.504Z,100823.29
2022-08-24T03:22:35.404Z,100825.73
2022-08-24T03:25:08.352Z,100827.62
2022-08-24T03:27:41.172Z,100831.30
2022-08-24T03:30:14.624Z,100831.29
2022-08-24T03:32:45.347Z,100834.09
2022-08-24T03:35:17.524Z,100829.39
2022-08-24T03:37:48.293Z,100833.07
2022-08-24T03:40:23.104Z,100833.13
2022-08-24T03:42:57.825Z,100834.48
2022-08-24T03:45:31.419Z,100844.30
2022-08-24T03:48:02.288Z,100843.45
2022-08-24T03:50:33.386Z,100846.27
2022-08-24T03:53:05.785Z,100849.11
2022-08-24T03:55:40.244Z,100853.70
2022-08-24T03:58:11.641Z,100854.64
2022-08-24T04:00:43.740Z,100854.27
2022-08-24T04:03:16.462Z,100856.92
2022-08-24T04:05:47.985Z,100862.48
2022-08-24T04:08:18.714Z,100865.98
2022-08-24T04:10:53.525Z,100863.56
2022-08-24T04:13:30.563Z,100865.69
2022-08-24T04:16:10.219Z,100868.04
2022-08-24T04:18:42.642Z,100868.02
2022-08-24T04:21:23.863Z,100870.27
2022-08-24T04:23:55.989Z,100873.95
2022-08-24T04:26:44.857Z,100874.66
2022-08-24T04:29:19.837Z,100879.71
2022-08-24T04:32:51.478Z,100886.89
2022-08-24T04:47:43.592Z,100890.65
2022-08-24T04:50:15.190Z,100890.70
2022-08-24T04:52:47.144Z,100888.58
2022-08-24T04:59:43.719Z,100896.95
2022-08-24T05:02:57.141Z,100897.23
2022-08-24T05:05:55.083Z,100897.83
2022-08-24T05:08:25.965Z,100899.35
2022-08-24T05:11:08.604Z,100898.76
2022-08-24T05:13:50.720Z,100906.13
2022-08-24T05:16:32.957Z,100911.56
2022-08-24T05:19:17.787Z,100915.44
2022-08-24T05:21:59.236Z,100917.42
2022-08-24T05:24:30.508Z,100920.84
2022-08-24T05:27:01.542Z,100925.08
2022-08-24T05:29:35.151Z,100923.92
2022-08-24T05:32:06.542Z,100925.67
2022-08-24T05:34:37.219Z,100926.27
2022-08-24T05:37:07.820Z,100925.81
2022-08-24T05:40:06.890Z,100920.95
2022-08-24T05:42:40.318Z,100921.35
2022-08-24T05:45:12.386Z,100919.74
2022-08-24T05:48:04.645Z,100918.13
2022-08-24T05:50:58.472Z,100921.33
2022-08-24T05:54:06.945Z,100927.25
2022-08-24T06:01:28.222Z,100928.46
2022-08-24T06:04:00.846Z,100934.52
2022-08-24T06:06:32.295Z,100934.05
2022-08-24T06:09:05.027Z,100934.91
2022-08-24T06:11:39.790Z,100935.84
2022-08-24T06:14:17.326Z,100934.32
2022-08-24T06:17:00.672Z,100933.77
2022-08-24T06:19:31.415Z,100931.34
2022-08-24T06:22:02.761Z,100928.55
2022-08-24T06:24:51.445Z,100928.61
2022-08-24T06:27:24.192Z,100932.48
2022-08-24T06:30:03.736Z,100930.92
2022-08-24T06:33:12.791Z,100930.36
2022-08-24T06:36:04.476Z,100931.21
2022-08-24T06:38:40.886Z,100928.15
2022-08-24T06:41:21.039Z,100926.54
2022-08-24T06:43:52.176Z,100926.72
2022-08-24T06:46:39.916Z,100917.98
2022-08-24T06:49:11.403Z,100920.25
2022-08-24T06:51:42.293Z,100920.38
2022-08-24T06:54:13.750Z,100923.83
2022-08-24T06:56:46.616Z,100929.61
2022-08-24T06:59:17.193Z,100931.17
2022-08-24T07:01:47.932Z,100934.45
2022-08-24T07:04:19.422Z,100932.80
2022-08-24T07:07:22.807Z,100935.67
2022-08-24T07:10:02.576Z,100937.23
2022-08-24T07:12:40.287Z,100935.11
2022-08-24T07:15:16.711Z,100938.96
2022-08-24T07:21:33.463Z,100931.69
2022-08-24T07:24:32.774Z,100926.77
2022-08-24T07:27:29.920Z,100931.16
2022-08-24T07:30:27.810Z,100927.89
2022-08-24T07:33:08.688Z,100927.88
2022-08-24T07:36:22.108Z,100923.23
2022-08-24T07:39:22.432Z,100929.90
2022-08-24T07:42:14.952Z,100927.77
2022-08-24T07:45:19.273Z,100925.70
2022-08-24T07:48:21.686Z,100924.67
2022-08-24T07:51:08.534Z,100918.75
2022-08-24T07:53:59.687Z,100917.49
2022-08-24T07:56:50.721Z,100917.23
2022-08-24T07:59:50.470Z,100910.73
2022-08-24T08:06:19.739Z,100915.10
2022-08-24T08:12:31.694Z,100913.95
2022-08-24T08:15:31.675Z,100915.80
2022-08-24T08:18:13.895Z,100925.70
2022-08-24T08:20:52.156Z,100926.09
2022-08-24T08:23:45.428Z,100927.83
2022-08-24T08:26:55.526Z,100924.29
2022-08-24T08:29:45.645Z,100928.14
2022-08-24T08:32:32.477Z,100929.52
2022-08-24T08:35:27.134Z,100928.80
2022-08-24T08:38:15.065Z,100921.53
2022-08-24T08:41:14.315Z,100929.52
2022-08-24T08:44:16.256Z,100925.61
2022-08-24T08:47:23.369Z,100932.35
2022-08-24T08:50:13.219Z,100938.23
2022-08-24T08:53:09.244Z,100938.61
2022-08-24T08:56:21.917Z,100939.88
2022-08-24T08:59:29.115Z,100940.59
2022-08-24T09:02:33.236Z,100946.16
2022-08-24T09:05:29.365Z,100943.66
2022-08-24T09:08:44.237Z,100946.31
2022-08-24T09:11:50.172Z,100946.04
2022-08-24T09:15:14.909Z,100951.89
2022-08-24T09:18:03.113Z,100950.92
2022-08-24T09:20:59.347Z,100950.09
2022-08-24T09:23:55.501Z,100952.63
2022-08-24T09:26:51.349Z,100952.30
2022-08-24T09:30:03.298Z,100953.46
2022-08-24T09:32:59.524Z,100956.06
2022-08-24T09:35:54.362Z,100961.13
2022-08-24T09:39:01.357Z,100953.40
2022-08-24T09:41:52.413Z,100950.29
2022-08-24T09:44:58.520Z,100949.16
2022-08-24T09:48:09.978Z,100956.89
2022-08-24T09:51:24.155Z,100959.10
2022-08-24T09:54:35.087Z,100959.23
2022-08-24T09:57:59.876Z,100960.92
2022-08-24T10:05:18.551Z,100959.08
2022-08-24T10:08:32.218Z,100958.48
2022-08-24T10:11:36.032Z,100954.29
2022-08-24T10:14:24.355Z,100954.57
2022-08-24T10:17:29.074Z,100946.27
2022-08-24T10:20:23.916Z,100949.89
2022-08-24T10:23:10.287Z,100949.27
2022-08-24T10:26:10.116Z,100945.23
2022-08-24T10:29:07.781Z,100941.59
2022-08-24T10:32:04.539Z,100934.67
2022-08-24T10:35:01.426Z,100943.42
2022-08-24T10:38:18.305Z,100946.35
2022-08-24T10:41:29.299Z,100941.98
2022-08-24T10:44:09.246Z,100947.20
2022-08-24T10:46:54.442Z,100943.70
2022-08-24T10:49:39.802Z,100940.54
2022-08-24T10:52:31.031Z,100939.04
2022-08-24T10:55:15.268Z,100942.05
2022-08-24T10:58:15.260Z,100942.09
2022-08-24T11:00:49.622Z,100942.42
2022-08-24T11:03:28.590Z,100937.10
2022-08-24T11:06:02.104Z,100936.73
2022-08-24T11:08:35.213Z,100939.59
2022-08-24T11:11:24.015Z,100940.27
2022-08-24T11:14:11.091Z,100938.83
2022-08-24T11:17:07.303Z,100938.94
2022-08-24T11:19:55.369Z,100946.35
2022-08-24T11:22:55.184Z,100945.51
2022-08-24T11:25:48.184Z,100950.17
2022-08-24T11:29:12.181Z,100947.59
2022-08-24T11:32:08.298Z,100952.27
2022-08-24T11:35:11.359Z,100950.55
2022-08-24T11:38:08.344Z,100948.25
2022-08-24T11:41:04.105Z,100951.48
2022-08-24T11:44:17.884Z,100948.29
2022-08-24T11:48:12.258Z,100953.21
2022-08-24T11:51:11.237Z,100953.52
2022-08-24T11:54:08.434Z,100958.41
2022-08-24T11:57:12.248Z,100961.87
2022-08-24T12:00:13.860Z,100960.84
2022-08-24T12:03:01.265Z,100959.96
2022-08-24T12:05:50.457Z,100959.19
2022-08-24T12:08:52.537Z,100959.77
2022-08-24T12:11:55.499Z,100963.16
2022-08-24T12:15:00.898Z,100960.48
2022-08-24T12:17:58.767Z,100957.40
2022-08-24T12:20:55.036Z,100958.77
2022-08-24T12:24:10.897Z,100954.98
2022-08-24T12:27:08.504Z,100947.80
2022-08-24T12:30:23.453Z,100955.95
2022-08-24T12:33:18.147Z,100957.60
2022-08-24T12:36:15.424Z,100954.59
2022-08-24T12:39:15.236Z,100955.39
2022-08-24T12:42:13.530Z,100955.38
2022-08-24T12:45:13.481Z,100952.48
2022-08-24T12:48:10.134Z,100952.77
2022-08-24T12:51:12.273Z,100956.86
2022-08-24T12:54:14.188Z,100957.34
2022-08-24T12:57:35.099Z,100957.48
2022-08-24T13:04:17.566Z,100951.91
2022-08-24T13:07:05.258Z,100953.48
2022-08-24T13:10:04.259Z,100956.25
2022-08-24T13:13:39.486Z,100958.17
2022-08-24T13:16:48.046Z,100958.08
2022-08-24T13:19:39.216Z,100967.55
2022-08-24T13:22:40.236Z,100966.89
2022-08-24T13:25:40.296Z,100964.89
2022-08-24T13:28:39.177Z,100959.30
2022-08-24T13:31:43.035Z,100961.79
2022-08-24T13:34:17.274Z,100962.17
2022-08-24T13:37:07.727Z,100959.73
2022-08-24T13:39:54.683Z,100962.02
2022-08-24T13:42:48.403Z,100962.52
2022-08-24T13:45:40.414Z,100963.90
2022-08-24T13:49:05.758Z,100965.35
2022-08-24T13:51:45.115Z,100961.48
2022-08-24T13:54:44.310Z,100961.14
2022-08-24T13:57:40.490Z,100964.52
2022-08-24T14:00:36.236Z,100967.75
2022-08-24T14:03:38.711Z,100960.77
2022-08-24T14:06:25.094Z,100959.63
2022-08-24T14:09:36.366Z,100956.29
2022-08-24T14:12:46.828Z,100959.48
2022-08-24T14:15:32.569Z,100961.31
2022-08-24T14:18:11.147Z,100959.42
2022-08-24T14:21:17.917Z,100962.26
2022-08-24T14:24:11.155Z,100957.77
2022-08-24T14:27:10.165Z,100956.77
2022-08-24T14:30:06.313Z,100951.21
2022-08-24T14:32:55.051Z,100948.36
2022-08-24T14:36:28.275Z,100949.15
2022-08-24T14:39:13.052Z,100949.74
2022-08-24T14:42:16.433Z,100944.83
2022-08-24T14:45:10.687Z,100944.91
2022-08-24T14:47:48.266Z,100943.09
2022-08-24T14:50:47.945Z,100938.30
2022-08-24T14:53:45.790Z,100936.76
2022-08-24T14:57:00.178Z,100933.71
2022-08-24T14:59:54.326Z,100936.00
2022-08-24T15:03:18.634Z,100934.84
2022-08-24T15:06:26.394Z,100932.30
2022-08-24T15:09:25.315Z,100935.33
2022-08-24T15:12:14.150Z,100934.60
2022-08-24T15:15:03.889Z,100936.77
2022-08-24T15:18:00.212Z,100939.36
2022-08-24T15:20:59.301Z,100941.90
2022-08-24T15:24:00.191Z,100940.04
2022-08-24T15:26:56.311Z,100942.88
2022-08-24T15:29:49.047Z,100946.40
2022-08-24T15:33:01.201Z,100949.30
2022-08-24T15:35:52.303Z,100950.59
2022-08-24T15:38:49.105Z,100950.72
2022-08-24T15:41:48.264Z,100947.69
2022-08-24T15:44:44.225Z,100944.08
2022-08-24T15:47:40.962Z,100946.01
2022-08-24T15:50:38.244Z,100945.92
2022-08-24T15:53:35.297Z,100943.83
2022-08-24T15:56:36.042Z,100944.13
2022-08-24T15:59:34.106Z,100943.59
2022-08-24T16:02:29.349Z,100944.17
2022-08-24T16:05:21.337Z,100945.38
2022-08-24T16:08:20.958Z,100942.55
2022-08-24T16:11:17.931Z,100950.71
2022-08-24T16:14:14.018Z,100949.80
2022-08-24T16:17:10.208Z,100953.39
2022-08-24T16:20:06.160Z,100952.19
2022-08-24T16:23:03.638Z,100959.10
2022-08-24T16:26:00.132Z,100958.50
2022-08-24T16:28:56.116Z,100960.66
2022-08-24T16:31:54.597Z,100960.64
2022-08-24T16:34:51.047Z,100968.21
2022-08-24T16:37:49.041Z,100970.02
2022-08-24T16:40:45.014Z,100973.70
2022-08-24T16:43:47.204Z,100975.86
2022-08-24T16:50:09.048Z,100981.02
2022-08-24T16:53:05.813Z,100985.98
2022-08-24T16:56:04.784Z,100987.86
2022-08-24T16:59:00.878Z,100987.35
2022-08-24T17:01:56.960Z,100992.73
2022-08-24T17:04:53.817Z,100999.73
2022-08-24T17:07:53.214Z,101003.37
2022-08-24T17:10:50.255Z,101004.77
2022-08-24T17:13:49.904Z,101009.72
2022-08-24T17:16:47.097Z,101013.18
2022-08-24T17:19:43.401Z,101018.13
2022-08-24T17:22:39.905Z,101021.79
2022-08-24T17:25:37.204Z,101023.19
2022-08-24T17:28:34.753Z,101025.91
2022-08-24T17:31:32.173Z,101024.03
2022-08-24T17:34:28.605Z,101026.36
2022-08-24T17:37:25.132Z,101029.80
2022-08-24T17:40:22.787Z,101031.29
2022-08-24T17:43:19.270Z,101035.11
2022-08-24T17:46:15.974Z,101038.45
2022-08-24T17:49:12.894Z,101036.14
2022-08-24T17:52:30.024Z,101037.70
2022-08-24T17:55:26.053Z,101040.93
2022-08-24T17:58:22.015Z,101042.73
2022-08-24T18:01:35.490Z,101049.38
2022-08-24T18:04:38.124Z,101048.69
2022-08-24T18:07:53.003Z,101043.40
2022-08-24T18:10:53.247Z,101053.89
2022-08-24T18:13:49.940Z,101053.41
2022-08-24T18:16:53.944Z,101058.24
2022-08-24T18:20:15.298Z,101055.98
2022-08-24T18:23:21.152Z,101060.11
2022-08-24T18:26:17.907Z,101058.49
2022-08-24T18:29:21.003Z,101063.55
2022-08-24T18:35:40.285Z,101069.80
2022-08-24T18:48:11.287Z,101078.06
2022-08-24T18:51:14.516Z,101076.61
2022-08-24T18:53:48.235Z,101070.95
2022-08-24T18:56:22.640Z,101073.37
2022-08-24T18:59:01.022Z,101073.45
2022-08-24T19:02:12.270Z,101079.12
2022-08-24T19:06:22.547Z,101081.24
2022-08-24T19:08:53.417Z,101086.65
2022-08-24T19:11:28.832Z,101086.00
2022-08-24T19:14:02.695Z,101084.35
2022-08-24T19:16:34.705Z,101083.43
2022-08-24T19:19:07.167Z,101084.38
2022-08-24T19:21:56.554Z,101086.77
2022-08-24T19:24:33.625Z,101095.52
2022-08-24T19:27:04.798Z,101093.64
2022-08-24T19:29:55.174Z,101095.63
2022-08-24T19:36:26.592Z,101097.86
2022-08-24T19:38:58.632Z,101101.94
2022-08-24T19:41:36.437Z,101100.20
2022-08-24T19:44:27.455Z,101097.15
2022-08-24T19:47:30.434Z,101096.94
2022-08-24T19:54:35.460Z,101100.42
2022-08-24T19:57:23.676Z,101105.89
2022-08-24T19:59:55.456Z,101105.03
2022-08-24T20:02:28.874Z,101099.90
2022-08-24T20:05:02.752Z,101104.04
2022-08-24T20:11:26.036Z,101101.06
2022-08-24T20:13:57.255Z,101098.98
2022-08-24T20:16:34.815Z,101098.48
2022-08-24T20:19:09.197Z,101097.46
2022-08-24T20:22:13.510Z,101097.55
2022-08-24T20:34:55.752Z,101094.37
2022-08-24T20:41:26.478Z,101093.31
2022-08-24T20:43:58.846Z,101092.49
2022-08-24T20:46:30.818Z,101096.27
2022-08-24T20:49:02.086Z,101096.37
2022-08-24T20:51:39.495Z,101102.09
2022-08-24T20:54:11.202Z,101103.46
2022-08-24T20:56:49.796Z,101103.95
2022-08-24T20:59:24.494Z,101107.70
2022-08-24T21:02:28.177Z,101106.88
2022-08-24T21:05:18.817Z,101112.17
2022-08-24T21:07:51.091Z,101118.73
2022-08-24T21:10:35.365Z,101119.52
2022-08-24T21:13:26.787Z,101120.52
2022-08-24T21:15:58.459Z,101119.85
2022-08-24T21:18:29.612Z,101127.48
2022-08-24T21:21:04.447Z,101130.31
2022-08-24T21:24:05.155Z,101132.98
2022-08-24T21:29:34.129Z,101139.83
2022-08-24T21:32:21.838Z,101136.38
2022-08-24T21:34:52.761Z,101132.37
2022-08-24T21:37:23.766Z,101134.36
2022-08-24T21:39:55.385Z,101135.88
2022-08-24T21:42:27.437Z,101131.93
2022-08-24T21:44:58.090Z,101134.80
2022-08-24T21:47:53.934Z,101140.76
2022-08-24T21:50:26.687Z,101144.51
2022-08-24T21:52:58.103Z,101150.70
2022-08-24T21:55:30.095Z,101170.09
2022-08-24T21:58:47.226Z,101214.61
2022-08-24T22:01:18.227Z,101241.90
2022-08-24T22:03:48.929Z,101237.15
2022-08-24T22:06:21.015Z,101242.83
2022-08-24T22:08:55.285Z,101251.15
2022-08-24T22:11:26.322Z,101245.49
2022-08-24T22:13:58.375Z,101245.86
2022-08-24T22:16:37.604Z,101247.86
2022-08-24T22:19:09.586Z,101250.66
2022-08-24T22:21:47.546Z,101250.13
2022-08-24T22:24:19.998Z,101253.00
2022-08-24T22:26:54.878Z,101252.81
2022-08-24T22:29:28.424Z,101252.06
2022-08-24T22:31:59.422Z,101260.20
2022-08-24T22:34:31.695Z,101259.27
2022-08-24T22:37:27.432Z,101258.00
2022-08-24T22:40:19.086Z,101250.89
2022-08-24T22:42:51.652Z,101238.50
2022-08-24T22:45:23.065Z,101238.46
2022-08-24T22:47:54.312Z,101229.90
2022-08-24T22:50:27.279Z,101229.48
2022-08-24T22:53:07.824Z,101231.92
2022-08-24T22:56:17.877Z,101226.86
2022-08-24T22:58:50.119Z,101207.83
2022-08-24T23:01:33.438Z,101191.65
2022-08-24T23:04:38.435Z,101180.98
2022-08-24T23:07:18.781Z,101170.23
2022-08-24T23:10:15.393Z,101154.79
2022-08-24T23:12:48.368Z,101147.79
2022-08-24T23:15:27.832Z,101141.22
2022-08-24T23:19:01.912Z,101136.24
2022-08-24T23:21:35.651Z,101109.94
2022-08-24T23:24:12.366Z,101094.80
2022-08-24T23:26:51.946Z,101088.18
2022-08-24T23:29:27.315Z,101088.22
2022-08-24T23:31:58.805Z,101087.98
2022-08-24T23:34:30.132Z,101093.45
2022-08-24T23:37:01.607Z,101099.83
2022-08-24T23:39:54.135Z,101099.36
2022-08-24T23:42:25.115Z,101100.56
2022-08-24T23:44:56.469Z,101103.79
2022-08-24T23:47:28.209Z,101108.66
2022-08-24T23:50:46.721Z,101103.92
2022-08-24T23:53:17.822Z,101100.33
2022-08-24T23:55:50.089Z,101095.20
2022-08-24T23:58:21.730Z,101094.91
